ENML/MOL METAR and TAF weather

Enter ICAO airport designator
Station Type Date Time Source
ENML METAR 2021/05/14 03:50 UTC NOAA

ENML 140350Z AUTO 06006KT 9999NDV OVC015/// 08/06 Q1009


Station Type Date Time Source
ENML Decoded METAR 2021/05/14 03:50 UTC NOAA

Molde / Aro, Norway (ENML) 62-45N 007-16E 3M
May 13, 2021 - 11:50 PM EDT / 2021.05.14 0350 UTC
Wind: from the ENE (060 degrees) at 7 MPH (6 KT):0
Sky conditions: overcast
Temperature: 46 F (8 C)
Dew Point: 42 F (6 C)
Relative Humidity: 87%
Pressure (altimeter): 29.80 in. Hg (1009 hPa)
ob: ENML 140350Z AUTO 06006KT 9999NDV OVC015/// 08/06 Q1009
cycle: 4

Station Type Date Time Source
ENML TAF UTC NOAA

Error!

Example: see airport list